Terminal Aerodrome Forecast
Issued by NWS

Home | Current Version | Previous Version | Text Only | Print | Product List | Glossary On
Versions: 1 2 3 4 5 6 7 8 9 10 11 12 13 14 15 16 17 18 19 20 21 22 23 24 25 26
532
FTUS43 KLSX 170520
TAFCPS
TAF
KCPS 170520Z 1706/1806 VRB03KT P6SM OVC250
     FM171500 17008KT 5SM -SN OVC050
      TEMPO 1715/1718 1SM -RASN BR OVC015
     FM171800 20010KT P6SM -RA OVC025
     FM172200 24008KT P6SM BKN050
     FM180400 VRB03KT P6SM FEW250=

USA.gov is the U.S. government's official web portal to all federal, state and local government web resources and services.